createdAt,value
2023-03-08T00:01:35.618Z,95052.97
2023-03-08T00:04:04.355Z,95063.34
2023-03-08T00:06:35.397Z,95062.53
2023-03-08T00:09:04.349Z,95062.31
2023-03-08T00:11:34.194Z,95064.97
2023-03-08T00:14:03.288Z,95065.78
2023-03-08T00:16:32.454Z,95066.03
2023-03-08T00:19:00.777Z,95065.56
2023-03-08T00:21:30.735Z,95069.28
2023-03-08T00:24:00.801Z,95074.41
2023-03-08T00:26:29.563Z,95082.44
2023-03-08T00:28:58.205Z,95088.41
2023-03-08T00:31:29.366Z,95088.41
2023-03-08T00:33:59.343Z,95073.84
2023-03-08T00:36:28.330Z,95090.03
2023-03-08T00:38:57.519Z,95077.56
2023-03-08T00:41:27.910Z,95084.78
2023-03-08T00:43:56.316Z,95095.72
2023-03-08T00:46:26.397Z,95093.75
2023-03-08T00:48:55.203Z,95092.69
2023-03-08T00:51:23.529Z,95090.25
2023-03-08T00:53:52.568Z,95085.13
2023-03-08T00:56:20.919Z,95074.28
2023-03-08T00:58:51.441Z,95082.56
2023-03-08T01:01:20.515Z,95089.56
2023-03-08T01:03:51.422Z,95085.25
2023-03-08T01:06:20.309Z,95075.09
2023-03-08T01:08:48.817Z,95074.97
2023-03-08T01:11:19.069Z,95073.47
2023-03-08T01:13:49.124Z,95077.31
2023-03-08T01:16:21.613Z,95076.50
2023-03-08T01:18:51.825Z,95073.25
2023-03-08T01:21:22.269Z,95068.56
2023-03-08T01:23:50.915Z,95071.59
2023-03-08T01:26:22.593Z,95078.13
2023-03-08T01:28:52.888Z,95079.75
2023-03-08T01:31:26.284Z,95078.47
2023-03-08T01:33:56.339Z,95074.75
2023-03-08T01:36:28.778Z,95088.47
2023-03-08T01:38:57.392Z,95080.69
2023-03-08T01:41:29.284Z,95085.22
2023-03-08T01:43:58.770Z,95058.66
2023-03-08T01:46:31.380Z,95078.47
2023-03-08T01:49:16.762Z,95076.25
2023-03-08T01:51:51.263Z,95070.88
2023-03-08T01:54:24.919Z,95075.69
2023-03-08T01:56:56.417Z,95072.78
2023-03-08T01:59:27.455Z,95070.56
2023-03-08T02:06:10.855Z,95071.97
2023-03-08T02:08:39.792Z,95070.09
2023-03-08T02:11:10.011Z,95064.97
2023-03-08T02:13:40.254Z,95068.59
2023-03-08T02:16:13.331Z,95064.72
2023-03-08T02:18:57.519Z,95055.53
2023-03-08T02:21:28.872Z,95047.84
2023-03-08T02:24:04.283Z,95040.75
2023-03-08T02:26:33.384Z,95049.72
2023-03-08T02:29:02.848Z,95051.56
2023-03-08T02:31:31.611Z,95036.78
2023-03-08T02:34:00.384Z,95047.41
2023-03-08T02:36:28.920Z,95039.09
2023-03-08T02:39:00.147Z,95036.66
2023-03-08T02:41:30.553Z,95037.25
2023-03-08T02:43:59.539Z,95037.34
2023-03-08T02:46:31.148Z,95036.53
2023-03-08T02:48:59.698Z,95038.63
2023-03-08T02:51:29.001Z,95027.91
2023-03-08T02:54:01.532Z,95034.53
2023-03-08T02:56:31.203Z,95031.63
2023-03-08T02:58:59.524Z,95025.31
2023-03-08T03:01:29.439Z,95022.66
2023-03-08T03:03:57.949Z,95022.44
2023-03-08T03:06:27.885Z,95023.69
2023-03-08T03:08:58.146Z,95014.63
2023-03-08T03:11:29.654Z,95024.06
2023-03-08T03:14:00.249Z,95033.88
2023-03-08T03:16:35.406Z,95043.63
2023-03-08T03:19:03.715Z,95037.22
2023-03-08T03:21:32.903Z,95038.94
2023-03-08T03:24:02.238Z,95043.38
2023-03-08T03:26:40.135Z,95045.25
2023-03-08T03:29:09.704Z,95037.22
2023-03-08T03:31:41.339Z,95041.19
2023-03-08T03:34:10.445Z,95033.72
2023-03-08T03:36:40.885Z,95029.91
2023-03-08T03:39:09.437Z,95032.91
2023-03-08T03:41:42.174Z,95016.47
2023-03-08T03:44:14.136Z,95012.41
2023-03-08T03:46:45.267Z,95022.31
2023-03-08T03:49:18.266Z,95029.97
2023-03-08T03:51:49.429Z,95034.31
2023-03-08T03:54:32.774Z,95013.78
2023-03-08T03:57:03.692Z,95030.44
2023-03-08T03:59:36.720Z,95012.63
2023-03-08T04:02:06.395Z,95036.97
2023-03-08T04:04:41.104Z,95029.06
2023-03-08T04:07:12.809Z,95038.13
2023-03-08T04:09:48.774Z,95036.28
2023-03-08T04:12:20.348Z,95027.75
2023-03-08T04:14:49.004Z,95026.28
2023-03-08T04:17:18.804Z,95021.94
2023-03-08T04:19:54.344Z,95023.00
2023-03-08T04:22:23.601Z,95027.75
2023-03-08T04:25:03.619Z,95001.31
2023-03-08T04:27:44.592Z,95022.28
2023-03-08T04:30:15.128Z,95012.38
2023-03-08T04:32:44.239Z,95016.09
2023-03-08T04:35:13.242Z,95018.06
2023-03-08T04:37:45.484Z,95012.47
2023-03-08T04:40:15.389Z,95010.63
2023-03-08T04:42:52.953Z,95006.31
2023-03-08T04:45:27.924Z,95001.19
2023-03-08T04:48:01.265Z,95001.53
2023-03-08T04:50:30.694Z,94997.81
2023-03-08T04:52:59.574Z,94999.91
2023-03-08T04:55:29.947Z,94992.56
2023-03-08T04:58:00.158Z,94993.97
2023-03-08T05:00:32.104Z,94980.47
2023-03-08T05:03:00.607Z,94989.53
2023-03-08T05:05:29.908Z,94980.50
2023-03-08T05:08:05.401Z,94988.19
2023-03-08T05:10:37.265Z,94982.38
2023-03-08T05:13:07.776Z,94963.06
2023-03-08T05:15:36.578Z,94969.13
2023-03-08T05:18:05.164Z,94957.59
2023-03-08T05:20:33.616Z,94950.94
2023-03-08T05:23:02.054Z,94946.63
2023-03-08T05:25:42.163Z,94939.66
2023-03-08T05:28:16.307Z,94947.44
2023-03-08T05:30:46.962Z,94942.81
2023-03-08T05:33:16.245Z,94935.59
2023-03-08T05:35:44.633Z,94936.88
2023-03-08T05:38:14.074Z,94941.38
2023-03-08T05:40:42.802Z,94940.47
2023-03-08T05:43:14.130Z,94939.41
2023-03-08T05:45:42.713Z,94941.03
2023-03-08T05:48:11.660Z,94928.47
2023-03-08T05:50:40.134Z,94915.22
2023-03-08T05:53:08.698Z,94917.53
2023-03-08T05:55:37.580Z,94918.22
2023-03-08T05:58:06.655Z,94916.13
2023-03-08T06:00:37.253Z,94901.34
2023-03-08T06:03:05.737Z,94897.88
2023-03-08T06:05:38.463Z,94913.44
2023-03-08T06:08:07.188Z,94905.44
2023-03-08T06:10:35.586Z,94925.47
2023-03-08T06:13:04.547Z,94929.75
2023-03-08T06:15:33.134Z,94936.88
2023-03-08T06:18:04.356Z,94933.84
2023-03-08T06:20:33.233Z,94930.09
2023-03-08T06:23:02.545Z,94926.03
2023-03-08T06:25:33.026Z,94918.72
2023-03-08T06:28:02.094Z,94926.03
2023-03-08T06:30:37.373Z,94926.28
2023-03-08T06:33:08.046Z,94929.53
2023-03-08T06:35:37.476Z,94935.34
2023-03-08T06:38:07.067Z,94944.56
2023-03-08T06:40:38.556Z,94949.53
2023-03-08T06:43:06.961Z,94946.28
2023-03-08T06:45:39.483Z,94942.69
2023-03-08T06:48:10.409Z,94949.22
2023-03-08T06:50:38.828Z,94949.44
2023-03-08T06:53:07.947Z,94945.38
2023-03-08T06:55:47.170Z,94926.63
2023-03-08T06:58:16.018Z,94934.69
2023-03-08T07:00:44.318Z,94934.19
2023-03-08T07:03:15.383Z,94943.75
2023-03-08T07:05:43.869Z,94938.88
2023-03-08T07:08:14.658Z,94950.28
2023-03-08T07:10:43.531Z,94937.00
2023-03-08T07:13:11.834Z,94948.03
2023-03-08T07:15:41.825Z,94946.28
2023-03-08T07:18:10.213Z,94954.91
2023-03-08T07:20:41.599Z,94949.88
2023-03-08T07:23:09.993Z,94949.31
2023-03-08T07:25:39.718Z,94957.47
2023-03-08T07:28:09.016Z,94958.28
2023-03-08T07:30:37.406Z,94945.69
2023-03-08T07:33:06.064Z,94972.13
2023-03-08T07:35:34.489Z,94965.50
2023-03-08T07:38:05.351Z,94961.06
2023-03-08T07:40:34.130Z,94949.06
2023-03-08T07:43:02.675Z,94942.06
2023-03-08T07:45:51.389Z,94940.34
2023-03-08T07:48:19.770Z,94936.72
2023-03-08T07:50:49.298Z,94943.81
2023-03-08T07:53:18.964Z,94935.78
2023-03-08T07:55:47.840Z,94921.69
2023-03-08T07:58:16.142Z,94934.84
2023-03-08T08:00:45.234Z,94918.91
2023-03-08T08:03:13.644Z,94922.50
2023-03-08T08:05:42.915Z,94919.56
2023-03-08T08:08:13.947Z,94917.22
2023-03-08T08:10:45.615Z,94907.91
2023-03-08T08:13:14.010Z,94893.78
2023-03-08T08:15:43.546Z,94900.16
2023-03-08T08:18:11.988Z,94901.56
2023-03-08T08:20:40.381Z,94880.00
2023-03-08T08:23:09.600Z,94893.03
2023-03-08T08:25:40.392Z,94889.88
2023-03-08T08:28:10.730Z,94898.03
2023-03-08T08:30:39.061Z,94885.53
2023-03-08T08:33:07.903Z,94879.84
2023-03-08T08:35:43.048Z,94863.59
2023-03-08T08:38:13.896Z,94853.28
2023-03-08T08:40:42.244Z,94846.47
2023-03-08T08:43:12.823Z,94861.13
2023-03-08T08:45:44.527Z,94853.72
2023-03-08T08:48:13.917Z,94857.28
2023-03-08T08:50:43.438Z,94854.28
2023-03-08T08:53:11.883Z,94848.31
2023-03-08T08:55:42.183Z,94839.47
2023-03-08T08:58:12.647Z,94838.06
2023-03-08T09:00:41.646Z,94825.41
2023-03-08T09:03:09.922Z,94817.91
2023-03-08T09:05:41.116Z,94825.16
2023-03-08T09:08:10.138Z,94828.38
2023-03-08T09:10:41.291Z,94810.75
2023-03-08T09:13:09.854Z,94814.53
2023-03-08T09:15:39.657Z,94814.28
2023-03-08T09:18:09.319Z,94800.63
2023-03-08T09:20:37.674Z,94795.38
2023-03-08T09:23:06.711Z,94795.38
2023-03-08T09:25:35.257Z,94782.38
2023-03-08T09:28:04.490Z,94775.13
2023-03-08T09:30:32.944Z,94766.03
2023-03-08T09:33:04.549Z,94755.59
2023-03-08T09:35:32.937Z,94748.34
2023-03-08T09:38:03.102Z,94745.69
2023-03-08T09:40:40.396Z,94739.09
2023-03-08T09:43:21.075Z,94734.19
2023-03-08T09:45:53.530Z,94727.19
2023-03-08T09:48:29.661Z,94712.00
2023-03-08T09:51:01.097Z,94712.22
2023-03-08T09:53:35.479Z,94710.16
2023-03-08T09:56:06.463Z,94708.09
2023-03-08T09:58:41.757Z,94708.31
2023-03-08T10:01:23.235Z,94691.63
2023-03-08T10:04:12.380Z,94698.34
2023-03-08T10:06:48.460Z,94699.41
2023-03-08T10:09:28.427Z,94688.41
2023-03-08T10:12:05.689Z,94704.25
2023-03-08T10:14:39.701Z,94708.22
2023-03-08T10:17:13.748Z,94707.41
2023-03-08T10:19:49.272Z,94698.28
2023-03-08T10:22:24.624Z,94705.53
2023-03-08T10:24:57.362Z,94689.03
2023-03-08T10:27:28.636Z,94697.16
2023-03-08T10:29:58.720Z,94686.97
2023-03-08T10:32:29.242Z,94687.28
2023-03-08T10:35:03.619Z,94686.44
2023-03-08T10:37:34.629Z,94687.47
2023-03-08T10:40:07.076Z,94677.53
2023-03-08T10:42:37.351Z,94667.38
2023-03-08T10:45:16.273Z,94672.78
2023-03-08T10:47:55.997Z,94666.31
2023-03-08T10:50:28.086Z,94670.16
2023-03-08T10:52:57.517Z,94670.22
2023-03-08T10:55:31.379Z,94667.53
2023-03-08T10:58:02.549Z,94665.44
2023-03-08T11:00:35.680Z,94672.91
2023-03-08T11:03:20.084Z,94676.16
2023-03-08T11:05:59.289Z,94676.78
2023-03-08T11:08:30.860Z,94670.88
2023-03-08T11:11:04.621Z,94678.16
2023-03-08T11:13:35.452Z,94676.78
2023-03-08T11:16:17.607Z,94645.06
2023-03-08T11:18:58.861Z,94659.56
2023-03-08T11:21:38.219Z,94655.41
2023-03-08T11:24:23.624Z,94658.06
2023-03-08T11:27:06.090Z,94621.50
2023-03-08T11:29:51.180Z,94659.88
2023-03-08T11:32:39.933Z,94628.41
2023-03-08T11:35:18.151Z,94623.81
2023-03-08T11:37:54.832Z,94617.94
2023-03-08T11:40:26.262Z,94652.13
2023-03-08T11:43:05.971Z,94604.38
2023-03-08T11:45:40.900Z,94629.00
2023-03-08T11:48:34.200Z,94626.59
2023-03-08T11:51:08.354Z,94623.28
2023-03-08T11:53:51.503Z,94624.34
2023-03-08T11:56:44.058Z,94644.81
2023-03-08T11:59:20.733Z,94593.06
2023-03-08T12:01:53.699Z,94588.09
2023-03-08T12:04:28.157Z,94613.59
2023-03-08T12:06:57.433Z,94605.56
2023-03-08T12:09:31.723Z,94595.34
2023-03-08T12:12:06.785Z,94586.56
2023-03-08T12:14:37.353Z,94572.13
2023-03-08T12:17:13.967Z,94556.31
2023-03-08T12:19:44.616Z,94557.19
2023-03-08T12:22:28.419Z,94555.88
2023-03-08T12:25:05.786Z,94544.09
2023-03-08T12:27:40.975Z,94533.94
2023-03-08T12:30:20.997Z,94535.09
2023-03-08T12:32:52.606Z,94522.72
2023-03-08T12:35:32.963Z,94509.41
2023-03-08T12:38:03.880Z,94509.19
2023-03-08T12:40:43.680Z,94505.75
2023-03-08T12:43:15.601Z,94504.72
2023-03-08T12:45:45.252Z,94510.13
2023-03-08T12:48:25.324Z,94504.78
2023-03-08T12:51:00.968Z,94504.06
2023-03-08T12:53:38.264Z,94499.25
2023-03-08T12:56:23.811Z,94494.75
2023-03-08T12:58:54.702Z,94484.03
2023-03-08T13:01:37.329Z,94479.81
2023-03-08T13:04:08.119Z,94474.47
2023-03-08T13:07:10.867Z,94486.34
2023-03-08T13:09:50.836Z,94482.84
2023-03-08T13:12:26.652Z,94473.41
2023-03-08T13:15:23.184Z,94481.22
2023-03-08T13:17:55.563Z,94491.47
2023-03-08T13:20:27.300Z,94488.75
2023-03-08T13:23:03.776Z,94499.03
2023-03-08T13:25:51.754Z,94490.41
2023-03-08T13:28:24.258Z,94473.94
2023-03-08T13:30:54.292Z,94460.97
2023-03-08T13:33:26.158Z,94503.28
2023-03-08T13:35:59.387Z,94471.78
2023-03-08T13:38:30.884Z,94481.16
2023-03-08T13:41:00.952Z,94478.69
2023-03-08T13:43:33.297Z,94479.22
2023-03-08T13:46:04.188Z,94470.59
2023-03-08T13:48:35.483Z,94475.69
2023-03-08T13:51:04.409Z,94490.28
2023-03-08T13:53:36.180Z,94488.91
2023-03-08T13:56:07.099Z,94488.63
2023-03-08T13:58:39.594Z,94497.28
2023-03-08T14:01:13.326Z,94491.31
2023-03-08T14:03:44.022Z,94492.63
2023-03-08T14:06:19.703Z,94475.34
2023-03-08T14:08:49.540Z,94482.06
2023-03-08T14:11:20.809Z,94482.91
2023-03-08T14:13:53.464Z,94480.97
2023-03-08T14:16:29.683Z,94478.75
2023-03-08T14:18:59.080Z,94477.88
2023-03-08T14:21:29.471Z,94480.56
2023-03-08T14:24:00.187Z,94482.44
2023-03-08T14:26:31.922Z,94474.81
2023-03-08T14:29:13.520Z,94468.25
2023-03-08T14:31:54.731Z,94476.03
2023-03-08T14:34:26.220Z,94469.50
2023-03-08T14:36:58.578Z,94474.84
2023-03-08T14:39:29.980Z,94476.13
2023-03-08T14:41:58.603Z,94475.00
2023-03-08T14:44:30.389Z,94454.72
2023-03-08T14:47:09.187Z,94455.75
2023-03-08T14:49:39.241Z,94460.84
2023-03-08T14:52:20.681Z,94454.81
2023-03-08T14:54:49.430Z,94450.69
2023-03-08T14:57:20.418Z,94453.84
2023-03-08T14:59:51.168Z,94441.88
2023-03-08T15:02:20.413Z,94436.44
2023-03-08T15:04:48.776Z,94420.41
2023-03-08T15:07:20.740Z,94421.69
2023-03-08T15:09:51.421Z,94422.78
2023-03-08T15:12:20.153Z,94413.06
2023-03-08T15:14:49.891Z,94412.75
2023-03-08T15:17:19.110Z,94410.06
2023-03-08T15:19:47.423Z,94399.00
2023-03-08T15:22:18.821Z,94404.03
2023-03-08T15:24:47.257Z,94404.03
2023-03-08T15:27:16.382Z,94407.00
2023-03-08T15:29:44.736Z,94392.66
2023-03-08T15:32:14.436Z,94399.38
2023-03-08T15:34:42.819Z,94403.13
2023-03-08T15:37:14.748Z,94402.56
2023-03-08T15:39:43.349Z,94397.13
2023-03-08T15:42:12.787Z,94392.78
2023-03-08T15:44:41.488Z,94404.09
2023-03-08T15:47:13.108Z,94409.00
2023-03-08T15:49:46.327Z,94400.81
2023-03-08T15:52:14.767Z,94397.59
2023-03-08T15:54:47.190Z,94391.88
2023-03-08T15:57:16.107Z,94388.09
2023-03-08T15:59:44.484Z,94382.25
2023-03-08T16:02:16.077Z,94394.53
2023-03-08T16:04:48.195Z,94388.91
2023-03-08T16:07:17.975Z,94378.28
2023-03-08T16:09:48.080Z,94373.66
2023-03-08T16:12:17.064Z,94376.97
2023-03-08T16:14:48.557Z,94357.22
2023-03-08T16:17:18.904Z,94369.59
2023-03-08T16:19:48.616Z,94360.94
2023-03-08T16:22:17.451Z,94361.75
2023-03-08T16:24:46.195Z,94365.56
2023-03-08T16:27:14.613Z,94355.31
2023-03-08T16:29:42.964Z,94340.22
2023-03-08T16:32:15.570Z,94341.25
2023-03-08T16:34:44.057Z,94348.28
2023-03-08T16:37:14.147Z,94332.13
2023-03-08T16:39:42.860Z,94341.53
2023-03-08T16:42:13.073Z,94336.78
2023-03-08T16:44:41.864Z,94352.66
2023-03-08T16:47:10.370Z,94352.47
2023-03-08T16:49:39.508Z,94353.25
2023-03-08T16:52:07.910Z,94347.31
2023-03-08T16:54:38.605Z,94345.25
2023-03-08T16:57:18.536Z,94338.69
2023-03-08T16:59:48.555Z,94337.66
2023-03-08T17:02:18.892Z,94339.03
2023-03-08T17:04:49.540Z,94336.41
2023-03-08T17:07:24.630Z,94349.91
2023-03-08T17:09:55.744Z,94352.63
2023-03-08T17:12:24.584Z,94335.38
2023-03-08T17:14:53.894Z,94335.69
2023-03-08T17:17:22.786Z,94335.94
2023-03-08T17:19:52.161Z,94332.97
2023-03-08T17:22:21.400Z,94341.66
2023-03-08T17:24:49.723Z,94354.66
2023-03-08T17:27:19.963Z,94355.25
2023-03-08T17:29:48.262Z,94359.84
2023-03-08T17:32:17.237Z,94365.53
2023-03-08T17:34:45.646Z,94364.44
2023-03-08T17:37:16.121Z,94364.75
2023-03-08T17:39:44.435Z,94375.34
2023-03-08T17:42:13.007Z,94381.31
2023-03-08T17:44:43.082Z,94368.59
2023-03-08T17:47:13.803Z,94359.16
2023-03-08T17:49:42.655Z,94357.78
2023-03-08T17:52:11.524Z,94365.63
2023-03-08T17:54:39.810Z,94367.50
2023-03-08T17:57:09.012Z,94371.03
2023-03-08T17:59:37.307Z,94374.28
2023-03-08T18:02:08.374Z,94368.59
2023-03-08T18:04:36.673Z,94354.81
2023-03-08T18:07:06.410Z,94357.22
2023-03-08T18:09:35.156Z,94366.94
2023-03-08T18:12:05.786Z,94371.03
2023-03-08T18:14:39.832Z,94370.50
2023-03-08T18:17:12.754Z,94375.34
2023-03-08T18:19:41.961Z,94374.25
2023-03-08T18:22:10.677Z,94371.53
2023-03-08T18:24:39.880Z,94374.75
2023-03-08T18:27:08.686Z,94377.97
2023-03-08T18:29:37.885Z,94378.28
2023-03-08T18:32:07.163Z,94401.75
2023-03-08T18:34:37.895Z,94383.34
2023-03-08T18:37:07.030Z,94397.38
2023-03-08T18:39:35.426Z,94396.00
2023-03-08T18:42:04.392Z,94403.59
2023-03-08T18:44:32.824Z,94411.72
2023-03-08T18:47:01.774Z,94419.28
2023-03-08T18:49:30.135Z,94391.91
2023-03-08T18:52:00.839Z,94398.94
2023-03-08T18:54:29.210Z,94398.44
2023-03-08T18:56:59.261Z,94406.25
2023-03-08T18:59:28.896Z,94392.75
2023-03-08T19:01:58.141Z,94391.09
2023-03-08T19:04:26.639Z,94380.56
2023-03-08T19:06:56.308Z,94387.34
2023-03-08T19:09:26.450Z,94394.16
2023-03-08T19:11:54.824Z,94378.22
2023-03-08T19:14:24.526Z,94393.94
2023-03-08T19:16:52.903Z,94381.28
2023-03-08T19:19:22.461Z,94389.34
2023-03-08T19:21:51.041Z,94395.84
2023-03-08T19:24:21.642Z,94401.59
2023-03-08T19:26:53.197Z,94399.63
2023-03-08T19:29:24.477Z,94422.38
2023-03-08T19:31:54.785Z,94421.56
2023-03-08T19:34:25.698Z,94401.31
2023-03-08T19:36:55.517Z,94424.22
2023-03-08T19:39:26.617Z,94435.84
2023-03-08T19:41:59.746Z,94434.75
2023-03-08T19:44:28.674Z,94424.22
2023-03-08T19:46:58.037Z,94427.44
2023-03-08T19:49:29.501Z,94434.75
2023-03-08T19:52:00.601Z,94430.44
2023-03-08T19:54:30.125Z,94445.06
2023-03-08T19:57:01.260Z,94434.25
2023-03-08T19:59:29.703Z,94431.03
2023-03-08T20:01:59.457Z,94437.00
2023-03-08T20:04:29.276Z,94465.38
2023-03-08T20:07:01.044Z,94459.94
2023-03-08T20:09:29.910Z,94457.84
2023-03-08T20:11:59.116Z,94447.81
2023-03-08T20:14:29.870Z,94461.13
2023-03-08T20:16:59.151Z,94423.59
2023-03-08T20:19:30.384Z,94435.97
2023-03-08T20:21:58.751Z,94443.53
2023-03-08T20:24:28.263Z,94448.94
2023-03-08T20:26:57.022Z,94458.47
2023-03-08T20:29:25.716Z,94450.56
2023-03-08T20:31:59.154Z,94441.94
2023-03-08T20:34:27.741Z,94458.47
2023-03-08T20:36:56.730Z,94437.38
2023-03-08T20:39:25.526Z,94442.03
2023-03-08T20:41:53.910Z,94445.03
2023-03-08T20:44:23.704Z,94427.25
2023-03-08T20:46:52.595Z,94425.09
2023-03-08T20:49:22.276Z,94411.66
2023-03-08T20:51:51.386Z,94410.88
2023-03-08T20:54:20.210Z,94404.91
2023-03-08T20:56:48.968Z,94398.47
2023-03-08T20:59:20.310Z,94396.91
2023-03-08T21:01:49.840Z,94431.22
2023-03-08T21:04:19.838Z,94419.91
2023-03-08T21:06:49.566Z,94425.31
2023-03-08T21:09:18.287Z,94424.22
2023-03-08T21:11:46.590Z,94410.50
2023-03-08T21:14:17.956Z,94405.94
2023-03-08T21:16:47.495Z,94404.88
2023-03-08T21:19:19.574Z,94400.38
2023-03-08T21:21:51.601Z,94397.69
2023-03-08T21:24:22.752Z,94377.28
2023-03-08T21:26:52.424Z,94395.06
2023-03-08T21:29:22.122Z,94380.22
2023-03-08T21:31:53.723Z,94373.50
2023-03-08T21:34:22.388Z,94366.78
2023-03-08T21:36:52.491Z,94359.19
2023-03-08T21:39:20.825Z,94363.25
2023-03-08T21:41:50.964Z,94354.88
2023-03-08T21:44:21.087Z,94356.81
2023-03-08T21:46:52.001Z,94365.19
2023-03-08T21:49:23.660Z,94357.59
2023-03-08T21:51:55.836Z,94343.81
2023-03-08T21:54:26.645Z,94368.94
2023-03-08T21:56:55.599Z,94357.06
2023-03-08T21:59:27.394Z,94351.38
2023-03-08T22:01:59.340Z,94333.00
2023-03-08T22:04:29.211Z,94332.19
2023-03-08T22:06:59.331Z,94330.84
2023-03-08T22:09:29.150Z,94321.66
2023-03-08T22:11:59.245Z,94326.47
2023-03-08T22:14:28.532Z,94309.94
2023-03-08T22:16:57.916Z,94306.47
2023-03-08T22:19:26.344Z,94319.50
2023-03-08T22:21:55.269Z,94318.66
2023-03-08T22:24:25.196Z,94308.59
2023-03-08T22:26:54.389Z,94313.44
2023-03-08T22:29:22.676Z,94310.16
2023-03-08T22:31:52.001Z,94344.44
2023-03-08T22:34:20.451Z,94315.22
2023-03-08T22:36:49.095Z,94309.59
2023-03-08T22:39:18.945Z,94328.22
2023-03-08T22:41:48.599Z,94318.50
2023-03-08T22:44:17.893Z,94321.19
2023-03-08T22:46:46.670Z,94326.91
2023-03-08T22:49:17.098Z,94324.72
2023-03-08T22:51:45.637Z,94306.88
2023-03-08T22:54:17.062Z,94307.34
2023-03-08T22:56:45.600Z,94311.94
2023-03-08T22:59:16.371Z,94302.16
2023-03-08T23:01:44.762Z,94299.94
2023-03-08T23:04:14.638Z,94308.06
2023-03-08T23:06:42.970Z,94298.56
2023-03-08T23:09:13.158Z,94320.44
2023-03-08T23:11:42.797Z,94318.25
2023-03-08T23:14:12.771Z,94317.97
2023-03-08T23:16:44.889Z,94329.28
2023-03-08T23:19:15.426Z,94323.31
2023-03-08T23:21:45.609Z,94340.34
2023-03-08T23:24:14.605Z,94336.31
2023-03-08T23:26:45.870Z,94339.56
2023-03-08T23:29:15.371Z,94336.03
2023-03-08T23:31:47.918Z,94337.41
2023-03-08T23:34:16.279Z,94335.50
2023-03-08T23:36:45.490Z,94327.69
2023-03-08T23:39:13.838Z,94331.50
2023-03-08T23:41:43.285Z,94336.09
2023-03-08T23:44:13.012Z,94331.78
2023-03-08T23:46:46.563Z,94333.41
2023-03-08T23:49:17.750Z,94328.50
2023-03-08T23:51:46.715Z,94313.66
2023-03-08T23:54:16.310Z,94312.06
2023-03-08T23:56:45.498Z,94308.31
2023-03-08T23:59:18.217Z,94311.00
